Red Lodge, MT

8:17 AM MDT on August 31, 2015 (GMT -0600)
MesoWest | | Change Station
CLOSE
Current Station
Personal Weather Station
Location: Red Lodge, MT
Elevation: 5879 ft
Nearby Weather Stations

Elev 5879 ft 45.24 °N, 109.46 °W | Updated 17 days ago

Clear
Clear
63 °F
Feels Like 63 °F
N
8
Wind Variable Wind from ESE
Gusts mph

Today
High -- | Low -- °F
--% Chance of Precip.
Yesterday
High -- | Low -- °F
Precip. -- in
6:38 AM 7:57 PM
Waning Gibbous, 95% visible
Pressure 30.05 in
Visibility 10.0 miles
Clouds Clear
Dew Point 35 °F
Humidity 36%
Rainfall in
Snow Depth Not available.
UV 1 out of 12
Pollen 8.80 out of 12
Air Quality Not available.
Flu Activity Not available.
METAR KCOD 311355Z AUTO 00000KT 10SM CLR 11/03 A3005 RMK AO1
Pressure 30.05 in
Visibility 10.0 miles
Clouds Clear
Dew Point 35 °F
Humidity 36%
Rainfall in
Snow Depth Not available.
UV 1 out of 12
Pollen 8.80 out of 12
Air Quality Not available.
Flu Activity Not available.
METAR KCOD 311355Z AUTO 00000KT 10SM CLR 11/03 A3005 RMK AO1

10-Day Weather Forecast

×

Almanac

Astronomy

Aug. 31, 2015 Rise Set
Actual Time
Civil Twilight
Nautical Twilight
Astronomical Twilight
Moon
Length of Visible Light
Length of Day
Tomorrow will be .
, % of the Moon is Illuminated

Today's Extremes

State Highs State Lows

Community

WunderPhotos

Upload Photos

1,851,244 photos uploaded!

WunderBlogs® & News

Nearby

Air Quality

  Air Quality AQ Index Pollutant
Not available.

Snow Depth

Station Depth Elevation

Earthquake Activity

City Distance Mag. Time & Date
Minimum magnitude displayed is 2.5.

Coastal Water Temperatures

Place Temperature

Stations

Nearby Weather Stations

Station Location Temp. Windchill Dew Point Humidity Wind Precip. Elev Updated Type